createdAt,value
2019-01-21T00:04:01.815Z,19.80
2019-01-21T00:09:07.557Z,24.20
2019-01-21T00:14:11.428Z,28.30
2019-01-21T00:19:15.134Z,25.73
2019-01-21T00:24:18.850Z,25.33
2019-01-21T00:29:22.664Z,24.00
2019-01-21T00:34:26.417Z,22.93
2019-01-21T00:39:30.140Z,22.13
2019-01-21T00:44:33.930Z,23.77
2019-01-21T00:49:37.637Z,19.73
2019-01-21T00:54:41.433Z,23.87
2019-01-21T00:59:45.188Z,20.80
2019-01-21T01:04:48.953Z,22.00
2019-01-21T01:09:52.658Z,19.57
2019-01-21T01:14:56.477Z,22.47
2019-01-21T01:20:00.264Z,24.97
2019-01-21T01:25:04.542Z,24.13
2019-01-21T01:30:08.989Z,21.03
2019-01-21T01:35:13.375Z,21.37
2019-01-21T01:40:18.174Z,21.13
2019-01-21T01:45:25.459Z,23.97
2019-01-21T01:50:29.545Z,21.80
2019-01-21T01:55:33.546Z,23.00
2019-01-21T02:00:37.771Z,21.37
2019-01-21T02:05:41.668Z,20.30
2019-01-21T02:10:45.468Z,23.07
2019-01-21T02:15:49.270Z,21.17
2019-01-21T02:20:54.579Z,18.60
2019-01-21T02:26:01.204Z,19.40
2019-01-21T02:31:24.023Z,20.67
2019-01-21T02:37:01.976Z,21.03
2019-01-21T02:42:09.295Z,25.17
2019-01-21T02:47:19.061Z,21.43
2019-01-21T02:52:40.768Z,23.53
2019-01-21T02:58:04.650Z,22.97
2019-01-21T03:03:19.017Z,24.47
2019-01-21T03:08:48.131Z,20.00
2019-01-21T03:14:20.127Z,24.10
2019-01-21T03:19:36.364Z,21.97
2019-01-21T03:24:52.407Z,17.70
2019-01-21T03:30:06.687Z,21.90
2019-01-21T03:35:32.449Z,20.83
2019-01-21T03:40:50.124Z,23.50
2019-01-21T03:46:11.758Z,19.67
2019-01-21T03:51:34.589Z,21.23
2019-01-21T03:56:40.899Z,19.07
2019-01-21T04:02:03.840Z,22.83
2019-01-21T04:07:27.055Z,20.02
2019-01-21T04:12:48.815Z,23.47
2019-01-21T04:18:24.506Z,20.83
2019-01-21T04:23:41.191Z,20.50
2019-01-21T04:29:03.995Z,20.37
2019-01-21T04:34:25.587Z,24.73
2019-01-21T04:39:41.251Z,23.37
2019-01-21T04:45:03.027Z,23.60
2019-01-21T04:50:21.163Z,18.97
2019-01-21T04:55:49.963Z,21.20
2019-01-21T05:01:12.772Z,23.83
2019-01-21T05:06:40.500Z,24.23
2019-01-21T05:11:50.788Z,23.13
2019-01-21T05:17:03.693Z,26.23
2019-01-21T05:22:25.735Z,27.10
2019-01-21T05:27:33.788Z,24.47
2019-01-21T05:32:42.431Z,21.37
2019-01-21T05:37:58.839Z,25.33
2019-01-21T05:43:31.039Z,24.83
2019-01-21T05:48:49.352Z,22.40
2019-01-21T05:54:21.067Z,21.67
2019-01-21T05:59:55.943Z,24.10
2019-01-21T06:05:05.286Z,24.93
2019-01-21T06:10:11.653Z,22.97
2019-01-21T06:15:21.824Z,26.87
2019-01-21T06:20:50.721Z,26.70
2019-01-21T06:26:00.299Z,24.33
2019-01-21T06:31:21.884Z,23.95
2019-01-21T06:36:29.609Z,25.67
2019-01-21T06:41:38.291Z,28.20
2019-01-21T06:47:07.223Z,23.00
2019-01-21T06:52:29.362Z,26.17
2019-01-21T06:57:55.126Z,26.70
2019-01-21T07:03:17.947Z,25.83
2019-01-21T07:08:39.652Z,25.93
2019-01-21T07:14:02.643Z,26.20
2019-01-21T07:19:24.371Z,26.27
2019-01-21T07:24:40.963Z,32.63
2019-01-21T07:30:04.372Z,29.60
2019-01-21T07:35:36.041Z,38.37
2019-01-21T07:40:57.254Z,33.97
2019-01-21T07:46:25.882Z,32.20
2019-01-21T07:51:54.906Z,30.13
2019-01-21T07:57:29.695Z,30.80
2019-01-21T08:02:50.560Z,28.90
2019-01-21T08:08:28.592Z,26.87
2019-01-21T08:13:54.204Z,34.33
2019-01-21T08:19:08.594Z,32.95
2019-01-21T08:24:34.339Z,30.93
2019-01-21T08:30:03.500Z,31.67
2019-01-21T08:35:24.995Z,34.17
2019-01-21T08:40:43.243Z,40.60
2019-01-21T08:46:21.465Z,37.93
2019-01-21T08:51:37.267Z,41.50
2019-01-21T08:56:48.379Z,39.63
2019-01-21T09:02:14.333Z,41.47
2019-01-21T09:07:35.750Z,37.63
2019-01-21T09:13:10.909Z,49.77
2019-01-21T09:18:28.233Z,56.23
2019-01-21T09:23:57.039Z,48.30
2019-01-21T09:29:07.342Z,50.70
2019-01-21T09:34:19.590Z,42.20
2019-01-21T09:39:37.603Z,39.57
2019-01-21T09:44:48.488Z,40.40
2019-01-21T09:49:52.207Z,31.53
2019-01-21T09:54:56.180Z,35.03
2019-01-21T10:00:00.641Z,33.10
2019-01-21T10:05:07.061Z,34.37
2019-01-21T10:10:28.634Z,30.43
2019-01-21T10:16:06.843Z,34.43
2019-01-21T10:21:29.683Z,36.37
2019-01-21T10:27:10.561Z,33.00
2019-01-21T10:32:31.842Z,29.90
2019-01-21T10:38:00.330Z,31.10
2019-01-21T10:43:21.897Z,29.83
2019-01-21T10:48:29.999Z,32.30
2019-01-21T10:53:55.593Z,26.97
2019-01-21T10:59:17.303Z,27.97
2019-01-21T11:04:40.194Z,30.77
2019-01-21T11:09:53.917Z,33.73
2019-01-21T11:15:15.570Z,32.37
2019-01-21T11:20:50.293Z,31.83
2019-01-21T11:26:25.402Z,33.28
2019-01-21T11:31:38.514Z,30.23
2019-01-21T11:36:45.617Z,32.20
2019-01-21T11:42:05.396Z,32.53
2019-01-21T11:47:31.192Z,35.30
2019-01-21T11:52:59.878Z,30.20
2019-01-21T11:58:15.901Z,32.50
2019-01-21T12:03:41.443Z,33.80
2019-01-21T12:08:59.007Z,28.70
2019-01-21T12:14:37.303Z,31.17
2019-01-21T12:19:53.784Z,35.27
2019-01-21T12:25:03.711Z,31.63
2019-01-21T12:30:29.399Z,34.83
2019-01-21T12:35:54.071Z,35.20
2019-01-21T12:41:13.730Z,28.33
2019-01-21T12:46:24.255Z,27.70
2019-01-21T12:51:56.345Z,31.27
2019-01-21T12:57:19.259Z,30.20
2019-01-21T13:02:36.417Z,27.37
2019-01-21T13:07:42.882Z,31.17
2019-01-21T13:13:11.967Z,28.23
2019-01-21T13:18:43.704Z,26.23
2019-01-21T13:24:15.111Z,25.77
2019-01-21T13:29:46.928Z,26.43
2019-01-21T13:35:21.693Z,25.07
2019-01-21T13:40:35.610Z,25.47
2019-01-21T13:45:46.830Z,22.73
2019-01-21T13:51:15.243Z,23.40
2019-01-21T13:56:36.448Z,28.70
2019-01-21T14:02:09.581Z,25.83
2019-01-21T14:07:32.314Z,28.53
2019-01-21T14:13:01.175Z,23.03
2019-01-21T14:18:22.098Z,21.23
2019-01-21T14:23:31.408Z,26.20
2019-01-21T14:28:42.133Z,23.40
2019-01-21T14:33:58.230Z,29.00
2019-01-21T14:39:07.258Z,22.33
2019-01-21T14:44:28.982Z,23.13
2019-01-21T14:50:00.883Z,29.83
2019-01-21T14:55:35.958Z,26.40
2019-01-21T15:00:45.907Z,23.73
2019-01-21T15:06:20.837Z,24.73
2019-01-21T15:11:49.437Z,24.97
2019-01-21T15:17:21.610Z,29.27
2019-01-21T15:22:45.559Z,27.43
2019-01-21T15:28:23.590Z,28.20
2019-01-21T15:33:34.484Z,28.23
2019-01-21T15:38:48.070Z,28.33
2019-01-21T15:44:19.770Z,29.50
2019-01-21T15:49:34.038Z,25.87
2019-01-21T15:54:47.338Z,27.17
2019-01-21T16:00:08.800Z,26.43
2019-01-21T16:05:40.720Z,31.17
2019-01-21T16:11:08.807Z,31.63
2019-01-21T16:16:34.064Z,32.80
2019-01-21T16:21:55.824Z,31.42
2019-01-21T16:27:08.841Z,32.13
2019-01-21T16:32:34.705Z,35.63
2019-01-21T16:37:56.916Z,31.73
2019-01-21T16:43:00.783Z,32.27
2019-01-21T16:48:04.575Z,35.80
2019-01-21T16:53:08.322Z,30.77
2019-01-21T16:58:12.109Z,26.20
2019-01-21T17:03:15.836Z,32.60
2019-01-21T17:08:19.571Z,30.47
2019-01-21T17:13:23.308Z,29.83
2019-01-21T17:18:27.030Z,29.43
2019-01-21T17:23:30.806Z,31.60
2019-01-21T17:28:34.610Z,31.87
2019-01-21T17:33:38.342Z,32.47
2019-01-21T17:38:42.183Z,35.83
2019-01-21T17:43:45.932Z,37.93
2019-01-21T17:48:49.665Z,37.53
2019-01-21T17:53:53.580Z,37.53
2019-01-21T17:58:57.468Z,37.77
2019-01-21T18:04:01.309Z,36.17
2019-01-21T18:09:07.310Z,42.40
2019-01-21T18:14:11.040Z,39.27
2019-01-21T18:19:14.847Z,40.63
2019-01-21T18:24:18.561Z,41.47
2019-01-21T18:29:22.384Z,52.50
2019-01-21T18:34:26.116Z,56.80
2019-01-21T18:39:29.859Z,47.20
2019-01-21T18:44:33.627Z,49.90
2019-01-21T18:49:37.422Z,45.37
2019-01-21T18:54:41.162Z,47.57
2019-01-21T18:59:44.961Z,45.87
2019-01-21T19:04:48.682Z,48.57
2019-01-21T19:09:52.732Z,49.07
2019-01-21T19:14:56.417Z,45.90
2019-01-21T19:20:00.188Z,48.30
2019-01-21T19:25:04.483Z,50.70
2019-01-21T19:30:09.785Z,56.63
2019-01-21T19:35:14.407Z,52.67
2019-01-21T19:40:19.205Z,47.23
2019-01-21T19:45:22.947Z,49.97
2019-01-21T19:50:27.208Z,48.87
2019-01-21T19:55:32.461Z,51.02
2019-01-21T20:00:36.226Z,47.93
2019-01-21T20:05:40.092Z,47.53
2019-01-21T20:10:43.898Z,47.13
2019-01-21T20:15:47.612Z,53.50
2019-01-21T20:20:51.382Z,46.73
2019-01-21T20:25:55.123Z,43.77
2019-01-21T20:30:59.172Z,53.10
2019-01-21T20:36:02.942Z,48.15
2019-01-21T20:41:06.705Z,50.23
2019-01-21T20:46:10.417Z,57.60
2019-01-21T20:51:14.199Z,53.00
2019-01-21T20:56:17.895Z,49.30
2019-01-21T21:01:21.618Z,51.97
2019-01-21T21:06:25.358Z,52.17
2019-01-21T21:11:29.079Z,46.03
2019-01-21T21:16:32.820Z,48.63
2019-01-21T21:21:36.532Z,41.87
2019-01-21T21:26:40.272Z,43.50
2019-01-21T21:31:44.060Z,47.33
2019-01-21T21:36:48.053Z,52.57
2019-01-21T21:41:51.850Z,45.93
2019-01-21T21:46:55.653Z,44.37
2019-01-21T21:51:59.799Z,47.67
2019-01-21T21:57:03.799Z,48.13
2019-01-21T22:02:07.647Z,42.77
2019-01-21T22:07:11.418Z,45.27
2019-01-21T22:12:15.324Z,41.10
2019-01-21T22:17:19.108Z,49.50
2019-01-21T22:22:22.897Z,48.90
2019-01-21T22:27:26.702Z,48.13
2019-01-21T22:32:30.463Z,48.50
2019-01-21T22:37:34.337Z,45.43
2019-01-21T22:42:38.346Z,46.70
2019-01-21T22:47:42.204Z,44.50
2019-01-21T22:52:46.287Z,46.77
2019-01-21T22:57:50.106Z,46.23
2019-01-21T23:02:53.901Z,46.70
2019-01-21T23:07:57.630Z,46.60
2019-01-21T23:13:01.495Z,45.57
2019-01-21T23:18:05.921Z,53.70
2019-01-21T23:23:09.724Z,50.00
2019-01-21T23:28:13.510Z,46.80
2019-01-21T23:33:17.302Z,52.63
2019-01-21T23:38:21.109Z,53.47
2019-01-21T23:43:24.880Z,45.67
2019-01-21T23:48:29.154Z,51.27
2019-01-21T23:53:36.127Z,54.57
2019-01-21T23:58:40.201Z,54.07
